Osage, Wyoming
Current Conditions -  °F | °C
As of 8:15 AM on Saturday 25 Oct 2014 (Local Time) from KECS Reporting Station
Clear Clear  
Wind Chill: 33°   Ceiling: Unl
Heat Index: 37°   Visibility: 10mi
Dew Point: 32°   Wind: 6mph
Humidity: 81%   Direction: 130°SE
Pressure: 30.19"   Gusts: NA
Location:  43.98°N, 104.42°W
Report Text: KECS 251415Z AUTO 13005KT 10SM CLR 03/00 A3019 RMK AO2
Loading
Personal Weather Stations






























Interactive Weather Map
Tropical Storm Tracking
New forecast layout! Learn more

10-Day Weather Forecast

Advertisements
Track Severe Weather on mobile